createdAt,value
2023-03-18T00:00:50.187Z,1.70
2023-03-18T00:01:50.171Z,1.70
2023-03-18T00:02:50.240Z,1.60
2023-03-18T00:03:50.202Z,1.70
2023-03-18T00:04:50.153Z,1.90
2023-03-18T00:05:50.147Z,1.80
2023-03-18T00:06:50.128Z,1.50
2023-03-18T00:07:50.098Z,2.20
2023-03-18T00:08:50.086Z,1.50
2023-03-18T00:09:50.090Z,1.80
2023-03-18T00:10:50.057Z,1.90
2023-03-18T00:11:50.094Z,1.80
2023-03-18T00:12:50.048Z,2.20
2023-03-18T00:13:50.068Z,2.10
2023-03-18T00:14:50.034Z,1.80
2023-03-18T00:15:50.095Z,2.00
2023-03-18T00:16:50.017Z,2.10
2023-03-18T00:17:50.019Z,2.40
2023-03-18T00:18:49.981Z,2.20
2023-03-18T00:19:49.957Z,1.90
2023-03-18T00:20:49.966Z,2.70
2023-03-18T00:21:49.964Z,1.70
2023-03-18T00:22:49.942Z,2.50
2023-03-18T00:23:49.917Z,1.90
2023-03-18T00:24:49.942Z,2.30
2023-03-18T00:25:49.895Z,1.90
2023-03-18T00:26:49.916Z,2.50
2023-03-18T00:27:49.873Z,2.00
2023-03-18T00:28:49.886Z,2.70
2023-03-18T00:29:49.889Z,2.30
2023-03-18T00:30:49.833Z,2.30
2023-03-18T00:31:49.836Z,2.20
2023-03-18T00:32:49.889Z,2.60
2023-03-18T00:33:49.831Z,2.20
2023-03-18T00:34:49.794Z,2.10
2023-03-18T00:35:49.843Z,2.80
2023-03-18T00:36:49.786Z,2.30
2023-03-18T00:37:49.785Z,2.10
2023-03-18T00:38:49.764Z,2.70
2023-03-18T00:39:49.739Z,2.90
2023-03-18T00:40:49.744Z,2.70
2023-03-18T00:41:49.718Z,2.30
2023-03-18T00:42:49.712Z,2.60
2023-03-18T00:43:49.733Z,2.50
2023-03-18T00:44:49.713Z,2.40
2023-03-18T00:45:49.718Z,2.20
2023-03-18T00:46:49.780Z,2.30
2023-03-18T00:47:49.674Z,2.30
2023-03-18T00:48:49.665Z,2.40
2023-03-18T00:49:49.629Z,2.80
2023-03-18T00:50:49.649Z,2.50
2023-03-18T00:51:49.651Z,2.70
2023-03-18T00:52:49.607Z,2.80
2023-03-18T00:53:49.624Z,2.50
2023-03-18T00:54:49.576Z,2.20
2023-03-18T00:55:49.581Z,2.80
2023-03-18T00:56:49.769Z,2.30
2023-03-18T00:57:49.567Z,2.50
2023-03-18T00:58:49.552Z,2.40
2023-03-18T00:59:49.534Z,2.70
2023-03-18T01:00:49.569Z,2.60
2023-03-18T01:01:49.546Z,2.50
2023-03-18T01:02:49.516Z,2.50
2023-03-18T01:03:49.503Z,2.40
2023-03-18T01:04:49.478Z,2.40
2023-03-18T01:05:49.460Z,2.70
2023-03-18T01:06:49.448Z,3.10
2023-03-18T01:07:50.358Z,2.70
2023-03-18T01:08:49.418Z,3.00
2023-03-18T01:09:49.426Z,2.20
2023-03-18T01:10:49.408Z,2.50
2023-03-18T01:11:49.395Z,2.60
2023-03-18T01:12:49.390Z,2.60
2023-03-18T01:13:49.376Z,2.30
2023-03-18T01:14:49.392Z,3.30
2023-03-18T01:15:49.355Z,2.50
2023-03-18T01:16:49.446Z,2.50
2023-03-18T01:17:49.344Z,3.10
2023-03-18T01:18:49.315Z,3.00
2023-03-18T01:19:49.300Z,2.60
2023-03-18T01:20:49.284Z,2.70
2023-03-18T01:21:49.289Z,3.00
2023-03-18T01:22:49.292Z,2.90
2023-03-18T01:23:49.258Z,2.40
2023-03-18T01:24:49.267Z,2.60
2023-03-18T01:25:49.243Z,2.70
2023-03-18T01:26:49.218Z,2.80
2023-03-18T01:27:49.221Z,2.30
2023-03-18T01:28:49.212Z,2.50
2023-03-18T01:29:49.226Z,2.70
2023-03-18T01:30:49.187Z,2.90
2023-03-18T01:31:49.208Z,2.90
2023-03-18T01:32:49.243Z,2.90
2023-03-18T01:33:49.160Z,2.30
2023-03-18T01:34:49.134Z,2.70
2023-03-18T01:35:49.141Z,2.00
2023-03-18T01:36:49.116Z,2.50
2023-03-18T01:37:49.118Z,2.50
2023-03-18T01:38:49.139Z,2.80
2023-03-18T01:39:49.078Z,2.90
2023-03-18T01:40:49.128Z,2.40
2023-03-18T01:41:49.067Z,2.40
2023-03-18T01:42:49.049Z,2.80
2023-03-18T01:43:49.034Z,2.70
2023-03-18T01:44:49.038Z,2.50
2023-03-18T01:45:49.096Z,2.50
2023-03-18T01:46:49.000Z,3.20
2023-03-18T01:47:49.005Z,3.00
2023-03-18T01:48:48.979Z,2.70
2023-03-18T01:49:48.979Z,2.30
2023-03-18T01:50:48.957Z,2.70
2023-03-18T01:51:48.949Z,2.90
2023-03-18T01:52:48.934Z,2.90
2023-03-18T01:53:48.909Z,3.10
2023-03-18T01:54:48.924Z,2.10
2023-03-18T01:55:48.913Z,2.70
2023-03-18T01:56:48.911Z,2.80
2023-03-18T01:57:48.887Z,2.30
2023-03-18T01:58:48.890Z,2.30
2023-03-18T01:59:48.863Z,2.90
2023-03-18T02:00:48.868Z,2.80
2023-03-18T02:01:48.847Z,3.10
2023-03-18T02:02:48.828Z,2.60
2023-03-18T02:03:48.812Z,2.20
2023-03-18T02:04:48.814Z,3.00
2023-03-18T02:05:48.814Z,2.50
2023-03-18T02:06:48.782Z,2.20
2023-03-18T02:07:48.800Z,2.70
2023-03-18T02:08:48.766Z,2.30
2023-03-18T02:09:48.751Z,2.30
2023-03-18T02:10:48.747Z,2.60
2023-03-18T02:11:48.735Z,2.00
2023-03-18T02:12:48.721Z,2.80
2023-03-18T02:13:48.707Z,2.40
2023-03-18T02:14:48.693Z,2.50
2023-03-18T02:15:48.677Z,2.40
2023-03-18T02:16:48.769Z,2.20
2023-03-18T02:17:48.678Z,2.40
2023-03-18T02:18:48.641Z,2.40
2023-03-18T02:19:48.647Z,2.60
2023-03-18T02:20:48.646Z,2.40
2023-03-18T02:21:48.658Z,2.40
2023-03-18T02:22:48.600Z,3.00
2023-03-18T02:23:48.598Z,2.80
2023-03-18T02:24:48.569Z,2.00
2023-03-18T02:25:48.589Z,2.20
2023-03-18T02:26:48.554Z,2.60
2023-03-18T02:27:48.553Z,2.70
2023-03-18T02:28:48.543Z,2.20
2023-03-18T02:29:48.538Z,2.70
2023-03-18T02:30:48.524Z,2.30
2023-03-18T02:31:48.517Z,2.50
2023-03-18T02:32:48.540Z,2.50
2023-03-18T02:33:48.494Z,2.40
2023-03-18T02:34:48.474Z,2.40
2023-03-18T02:35:48.526Z,2.40
2023-03-18T02:36:48.439Z,2.50
2023-03-18T02:37:48.466Z,3.00
2023-03-18T02:38:48.435Z,2.60
2023-03-18T02:39:48.446Z,2.50
2023-03-18T02:40:48.390Z,2.70
2023-03-18T02:41:48.401Z,2.60
2023-03-18T02:42:48.374Z,2.50
2023-03-18T02:43:48.373Z,2.10
2023-03-18T02:44:48.374Z,2.20
2023-03-18T02:45:48.369Z,2.60
2023-03-18T02:46:48.343Z,2.90
2023-03-18T02:47:48.319Z,2.70
2023-03-18T02:48:48.356Z,2.80
2023-03-18T02:49:48.310Z,2.30
2023-03-18T02:50:48.289Z,2.60
2023-03-18T02:51:48.288Z,2.50
2023-03-18T02:52:48.277Z,2.70
2023-03-18T02:53:48.295Z,2.60
2023-03-18T02:54:48.253Z,2.90
2023-03-18T02:55:48.242Z,3.00
2023-03-18T02:56:48.218Z,2.90
2023-03-18T02:57:48.219Z,2.60
2023-03-18T02:58:50.604Z,2.70
2023-03-18T02:59:48.212Z,2.40
2023-03-18T03:00:48.192Z,2.60
2023-03-18T03:01:48.262Z,2.80
2023-03-18T03:02:48.260Z,2.50
2023-03-18T03:03:48.156Z,2.60
2023-03-18T03:04:48.155Z,2.70
2023-03-18T03:05:48.117Z,2.60
2023-03-18T03:06:48.110Z,2.50
2023-03-18T03:07:48.112Z,2.50
2023-03-18T03:08:48.089Z,3.00
2023-03-18T03:09:48.116Z,2.70
2023-03-18T03:10:48.082Z,2.30
2023-03-18T03:11:48.062Z,2.70
2023-03-18T03:12:48.068Z,2.50
2023-03-18T03:13:48.031Z,2.70
2023-03-18T03:14:48.027Z,2.50
2023-03-18T03:15:48.046Z,2.20
2023-03-18T03:16:48.017Z,2.40
2023-03-18T03:17:47.994Z,1.70
2023-03-18T03:18:48.027Z,2.00
2023-03-18T03:19:47.983Z,2.20
2023-03-18T03:20:47.984Z,1.50
2023-03-18T03:21:47.955Z,1.80
2023-03-18T03:22:47.953Z,3.00
2023-03-18T03:23:47.958Z,2.80
2023-03-18T03:24:47.930Z,2.80
2023-03-18T03:25:47.924Z,2.20
2023-03-18T03:26:47.903Z,2.20
2023-03-18T03:27:47.878Z,2.40
2023-03-18T03:28:47.894Z,1.60
2023-03-18T03:29:47.872Z,1.40
2023-03-18T03:30:47.916Z,2.10
2023-03-18T03:31:47.849Z,2.60
2023-03-18T03:32:47.902Z,3.20
2023-03-18T03:33:47.836Z,2.40
2023-03-18T03:34:47.799Z,2.50
2023-03-18T03:35:47.794Z,2.20
2023-03-18T03:36:47.797Z,2.70
2023-03-18T03:37:47.787Z,2.30
2023-03-18T03:38:47.756Z,2.40
2023-03-18T03:39:47.744Z,2.50
2023-03-18T03:40:47.747Z,2.70
2023-03-18T03:41:47.752Z,2.70
2023-03-18T03:42:47.736Z,2.50
2023-03-18T03:43:47.711Z,2.40
2023-03-18T03:44:47.696Z,3.00
2023-03-18T03:45:47.690Z,2.60
2023-03-18T03:46:47.767Z,2.40
2023-03-18T03:47:47.679Z,2.80
2023-03-18T03:48:47.667Z,2.80
2023-03-18T03:49:47.680Z,2.90
2023-03-18T03:50:47.641Z,2.40
2023-03-18T03:51:47.621Z,2.00
2023-03-18T03:52:47.620Z,2.30
2023-03-18T03:53:47.612Z,2.70
2023-03-18T03:54:47.639Z,2.10
2023-03-18T03:55:47.587Z,1.70
2023-03-18T03:56:47.557Z,1.80
2023-03-18T03:57:47.571Z,2.70
2023-03-18T03:58:47.553Z,1.70
2023-03-18T03:59:47.554Z,1.60
2023-03-18T04:00:47.538Z,2.80
2023-03-18T04:01:47.511Z,1.80
2023-03-18T04:02:47.579Z,1.90
2023-03-18T04:03:47.541Z,2.30
2023-03-18T04:04:47.497Z,2.60
2023-03-18T04:05:47.458Z,3.10
2023-03-18T04:06:47.461Z,2.30
2023-03-18T04:07:47.433Z,2.10
2023-03-18T04:08:47.426Z,2.70
2023-03-18T04:09:47.427Z,2.30
2023-03-18T04:10:47.437Z,2.10
2023-03-18T04:11:47.413Z,1.90
2023-03-18T04:12:47.390Z,1.70
2023-03-18T04:13:47.417Z,2.20
2023-03-18T04:14:48.008Z,1.90
2023-03-18T04:15:47.471Z,2.10
2023-03-18T04:16:47.357Z,2.50
2023-03-18T04:17:47.343Z,1.90
2023-03-18T04:18:47.319Z,2.30
2023-03-18T04:19:47.309Z,3.10
2023-03-18T04:20:47.309Z,1.80
2023-03-18T04:21:47.300Z,2.00
2023-03-18T04:22:47.279Z,2.50
2023-03-18T04:23:47.262Z,2.20
2023-03-18T04:24:47.279Z,1.60
2023-03-18T04:25:47.262Z,1.80
2023-03-18T04:26:47.325Z,2.60
2023-03-18T04:27:47.221Z,1.60
2023-03-18T04:28:47.209Z,2.20
2023-03-18T04:29:47.242Z,1.90
2023-03-18T04:30:47.185Z,1.70
2023-03-18T04:31:47.233Z,1.80
2023-03-18T04:32:47.218Z,1.50
2023-03-18T04:33:47.151Z,2.30
2023-03-18T04:34:47.159Z,2.30
2023-03-18T04:35:47.163Z,1.80
2023-03-18T04:36:47.129Z,1.80
2023-03-18T04:37:47.115Z,2.10
2023-03-18T04:38:47.107Z,1.90
2023-03-18T04:39:47.097Z,2.40
2023-03-18T04:40:47.089Z,2.60
2023-03-18T04:41:47.077Z,1.30
2023-03-18T04:42:47.059Z,2.50
2023-03-18T04:43:47.055Z,2.20
2023-03-18T04:44:47.039Z,2.00
2023-03-18T04:45:47.086Z,1.60
2023-03-18T04:46:47.032Z,2.30
2023-03-18T04:47:46.994Z,2.30
2023-03-18T04:48:47.018Z,1.60
2023-03-18T04:49:46.977Z,2.50
2023-03-18T04:50:46.989Z,2.40
2023-03-18T04:51:46.959Z,1.80
2023-03-18T04:52:46.946Z,2.10
2023-03-18T04:53:46.927Z,2.40
2023-03-18T04:54:46.934Z,2.10
2023-03-18T04:55:46.932Z,2.00
2023-03-18T04:56:46.905Z,2.00
2023-03-18T04:57:46.923Z,1.60
2023-03-18T04:58:46.889Z,1.50
2023-03-18T04:59:46.903Z,1.60
2023-03-18T05:00:46.933Z,1.90
2023-03-18T05:01:46.898Z,1.60
2023-03-18T05:02:46.868Z,2.40
2023-03-18T05:03:46.902Z,1.80
2023-03-18T05:04:46.837Z,2.00
2023-03-18T05:05:46.812Z,1.80
2023-03-18T05:06:46.806Z,1.70
2023-03-18T05:07:46.798Z,1.70
2023-03-18T05:08:46.784Z,1.70
2023-03-18T05:09:46.752Z,2.60
2023-03-18T05:10:46.748Z,2.00
2023-03-18T05:11:46.769Z,2.10
2023-03-18T05:12:46.752Z,1.50
2023-03-18T05:13:46.726Z,1.80
2023-03-18T05:14:46.736Z,1.80
2023-03-18T05:15:46.714Z,2.20
2023-03-18T05:16:46.710Z,1.60
2023-03-18T05:17:46.698Z,1.60
2023-03-18T05:18:46.675Z,2.00
2023-03-18T05:19:46.655Z,1.50
2023-03-18T05:20:46.652Z,1.20
2023-03-18T05:21:46.633Z,2.00
2023-03-18T05:22:46.612Z,1.50
2023-03-18T05:23:46.602Z,2.30
2023-03-18T05:24:46.590Z,2.10
2023-03-18T05:25:46.601Z,1.70
2023-03-18T05:26:46.648Z,1.70
2023-03-18T05:27:46.578Z,1.20
2023-03-18T05:28:46.582Z,2.10
2023-03-18T05:29:46.547Z,1.60
2023-03-18T05:30:46.546Z,2.00
2023-03-18T05:31:46.686Z,2.10
2023-03-18T05:32:46.621Z,1.80
2023-03-18T05:33:46.546Z,2.30
2023-03-18T05:34:46.507Z,2.30
2023-03-18T05:35:46.502Z,2.00
2023-03-18T05:36:46.469Z,1.60
2023-03-18T05:37:46.470Z,2.00
2023-03-18T05:38:46.439Z,2.00
2023-03-18T05:39:46.432Z,1.70
2023-03-18T05:40:46.460Z,1.30
2023-03-18T05:41:46.451Z,1.90
2023-03-18T05:42:55.937Z,1.40
2023-03-18T05:43:47.386Z,1.80
2023-03-18T05:44:46.403Z,1.60
2023-03-18T05:45:46.500Z,1.50
2023-03-18T05:46:46.364Z,1.10
2023-03-18T05:47:46.366Z,1.20
2023-03-18T05:48:46.342Z,1.50
2023-03-18T05:49:46.360Z,1.90
2023-03-18T05:50:46.377Z,1.60
2023-03-18T05:51:46.322Z,1.50
2023-03-18T05:52:46.316Z,1.50
2023-03-18T05:53:46.306Z,1.30
2023-03-18T05:54:46.261Z,1.50
2023-03-18T05:55:46.272Z,1.50
2023-03-18T05:56:46.271Z,1.40
2023-03-18T05:57:46.229Z,1.70
2023-03-18T05:58:46.235Z,1.40
2023-03-18T05:59:46.216Z,1.40
2023-03-18T06:00:46.216Z,1.30
2023-03-18T06:01:46.286Z,1.50
2023-03-18T06:02:46.244Z,2.00
2023-03-18T06:03:46.210Z,1.70
2023-03-18T06:04:46.173Z,1.40
2023-03-18T06:05:46.192Z,1.80
2023-03-18T06:06:46.160Z,1.50
2023-03-18T06:07:46.140Z,1.80
2023-03-18T06:08:46.137Z,2.70
2023-03-18T06:09:46.134Z,1.80
2023-03-18T06:10:46.135Z,1.40
2023-03-18T06:11:46.114Z,2.20
2023-03-18T06:12:46.121Z,1.90
2023-03-18T06:13:46.095Z,1.90
2023-03-18T06:14:46.053Z,1.90
2023-03-18T06:15:47.642Z,2.10
2023-03-18T06:16:46.101Z,2.30
2023-03-18T06:17:46.072Z,1.40
2023-03-18T06:18:46.106Z,2.00
2023-03-18T06:19:45.999Z,1.70
2023-03-18T06:20:45.985Z,2.00
2023-03-18T06:21:46.028Z,2.30
2023-03-18T06:22:46.001Z,1.70
2023-03-18T06:23:45.985Z,1.90
2023-03-18T06:24:48.304Z,1.50
2023-03-18T06:25:46.006Z,1.90
2023-03-18T06:26:45.976Z,1.50
2023-03-18T06:27:45.926Z,2.50
2023-03-18T06:28:45.902Z,1.40
2023-03-18T06:29:45.920Z,2.00
2023-03-18T06:30:46.014Z,1.90
2023-03-18T06:31:45.897Z,1.50
2023-03-18T06:32:45.906Z,2.30
2023-03-18T06:33:45.857Z,1.60
2023-03-18T06:34:45.868Z,1.80
2023-03-18T06:35:45.870Z,2.10
2023-03-18T06:36:45.821Z,2.30
2023-03-18T06:37:45.835Z,2.20
2023-03-18T06:38:45.833Z,1.50
2023-03-18T06:39:45.811Z,1.70
2023-03-18T06:40:45.776Z,1.80
2023-03-18T06:41:45.784Z,1.40
2023-03-18T06:42:45.781Z,2.30
2023-03-18T06:43:45.790Z,1.50
2023-03-18T06:44:45.746Z,1.60
2023-03-18T06:45:45.731Z,1.50
2023-03-18T06:46:45.755Z,1.60
2023-03-18T06:47:45.716Z,2.30
2023-03-18T06:48:45.747Z,1.60
2023-03-18T06:49:45.688Z,1.60
2023-03-18T06:50:45.684Z,1.50
2023-03-18T06:51:45.671Z,1.40
2023-03-18T06:52:45.665Z,1.70
2023-03-18T06:53:45.653Z,1.50
2023-03-18T06:54:45.619Z,1.70
2023-03-18T06:55:45.600Z,1.70
2023-03-18T06:56:46.377Z,1.60
2023-03-18T06:57:45.626Z,2.10
2023-03-18T06:58:45.706Z,1.40
2023-03-18T06:59:45.653Z,2.10
2023-03-18T07:00:45.679Z,1.90
2023-03-18T07:01:45.631Z,2.00
2023-03-18T07:02:45.533Z,1.50
2023-03-18T07:03:45.530Z,2.10
2023-03-18T07:04:45.705Z,1.80
2023-03-18T07:05:45.496Z,1.60
2023-03-18T07:06:45.527Z,1.80
2023-03-18T07:07:45.513Z,1.50
2023-03-18T07:08:45.480Z,2.20
2023-03-18T07:09:45.492Z,1.70
2023-03-18T07:10:45.476Z,1.70
2023-03-18T07:11:45.440Z,1.90
2023-03-18T07:12:45.446Z,1.90
2023-03-18T07:13:45.439Z,2.10
2023-03-18T07:14:45.407Z,1.70
2023-03-18T07:15:45.436Z,2.20
2023-03-18T07:16:45.405Z,1.90
2023-03-18T07:17:45.385Z,2.20
2023-03-18T07:18:45.378Z,1.70
2023-03-18T07:19:45.401Z,1.30
2023-03-18T07:20:45.359Z,2.00
2023-03-18T07:21:45.321Z,1.70
2023-03-18T07:22:45.353Z,2.20
2023-03-18T07:23:45.325Z,1.60
2023-03-18T07:24:45.321Z,1.60
2023-03-18T07:25:45.320Z,1.70
2023-03-18T07:26:45.291Z,1.60
2023-03-18T07:27:45.285Z,1.70
2023-03-18T07:28:45.279Z,1.70
2023-03-18T07:29:45.253Z,1.70
2023-03-18T07:30:45.351Z,1.40
2023-03-18T07:31:45.246Z,2.00
2023-03-18T07:32:45.215Z,1.70
2023-03-18T07:33:45.247Z,1.60
2023-03-18T07:34:45.195Z,2.30
2023-03-18T07:35:45.243Z,1.60
2023-03-18T07:36:45.212Z,1.70
2023-03-18T07:37:45.149Z,1.90
2023-03-18T07:38:45.141Z,1.90
2023-03-18T07:39:45.153Z,2.10
2023-03-18T07:40:45.158Z,1.80
2023-03-18T07:41:45.159Z,1.70
2023-03-18T07:42:45.107Z,1.90
2023-03-18T07:43:45.115Z,2.30
2023-03-18T07:44:45.111Z,1.80
2023-03-18T07:45:45.075Z,1.60
2023-03-18T07:46:45.173Z,1.40
2023-03-18T07:47:47.090Z,1.40
2023-03-18T07:48:45.051Z,1.70
2023-03-18T07:49:45.024Z,1.90
2023-03-18T07:50:45.008Z,1.70
2023-03-18T07:51:45.010Z,1.60
2023-03-18T07:52:44.981Z,1.50
2023-03-18T07:53:45.090Z,2.30
2023-03-18T07:54:44.987Z,1.50
2023-03-18T07:55:45.035Z,1.80
2023-03-18T07:56:45.007Z,1.70
2023-03-18T07:57:44.994Z,1.90
2023-03-18T07:58:44.906Z,2.00
2023-03-18T07:59:44.931Z,2.20
2023-03-18T08:00:45.373Z,1.70
2023-03-18T08:01:44.892Z,1.90
2023-03-18T08:02:44.876Z,1.90
2023-03-18T08:03:44.924Z,1.40
2023-03-18T08:04:44.880Z,1.10
2023-03-18T08:05:44.861Z,1.70
2023-03-18T08:06:44.831Z,1.70
2023-03-18T08:07:44.801Z,1.60
2023-03-18T08:08:44.881Z,1.80
2023-03-18T08:09:44.836Z,1.50
2023-03-18T08:10:44.770Z,1.50
2023-03-18T08:11:44.767Z,1.90
2023-03-18T08:12:52.528Z,1.40
2023-03-18T08:13:45.770Z,1.80
2023-03-18T08:14:44.774Z,1.30
2023-03-18T08:15:44.745Z,2.00
2023-03-18T08:16:44.796Z,2.10
2023-03-18T08:17:44.709Z,1.50
2023-03-18T08:18:44.712Z,1.60
2023-03-18T08:19:44.709Z,1.50
2023-03-18T08:20:44.708Z,1.60
2023-03-18T08:21:44.659Z,1.80
2023-03-18T08:22:44.634Z,2.00
2023-03-18T08:23:44.664Z,1.50
2023-03-18T08:24:45.634Z,1.70
2023-03-18T08:25:44.619Z,1.50
2023-03-18T08:26:44.602Z,1.70
2023-03-18T08:27:44.588Z,2.00
2023-03-18T08:28:44.589Z,1.90
2023-03-18T08:29:44.591Z,1.50
2023-03-18T08:30:44.539Z,2.60
2023-03-18T08:31:44.584Z,1.90
2023-03-18T08:32:44.691Z,1.80
2023-03-18T08:33:44.539Z,1.10
2023-03-18T08:34:44.532Z,1.80
2023-03-18T08:35:44.511Z,1.60
2023-03-18T08:36:44.487Z,1.40
2023-03-18T08:37:44.503Z,1.30
2023-03-18T08:38:44.501Z,1.50
2023-03-18T08:39:44.486Z,1.50
2023-03-18T08:40:44.479Z,1.40
2023-03-18T08:41:45.844Z,1.50
2023-03-18T08:42:44.451Z,1.50
2023-03-18T08:43:44.439Z,1.60
2023-03-18T08:44:44.407Z,1.30
2023-03-18T08:45:44.577Z,1.20
2023-03-18T08:46:44.361Z,1.10
2023-03-18T08:47:44.385Z,1.60
2023-03-18T08:48:44.353Z,1.70
2023-03-18T08:49:44.353Z,1.60
2023-03-18T08:50:44.345Z,1.40
2023-03-18T08:51:44.332Z,1.40
2023-03-18T08:52:44.340Z,1.50
2023-03-18T08:53:44.340Z,1.40
2023-03-18T08:54:44.271Z,1.80
2023-03-18T08:55:44.280Z,1.50
2023-03-18T08:56:44.312Z,1.20
2023-03-18T08:57:44.271Z,1.20
2023-03-18T08:58:44.234Z,1.00
2023-03-18T08:59:44.237Z,1.50
2023-03-18T09:00:44.366Z,1.30
2023-03-18T09:01:44.226Z,1.60
2023-03-18T09:02:44.211Z,1.30
2023-03-18T09:03:44.249Z,1.50
2023-03-18T09:04:44.170Z,1.30
2023-03-18T09:05:44.167Z,1.00
2023-03-18T09:06:44.176Z,1.00
2023-03-18T09:07:44.150Z,1.70
2023-03-18T09:08:44.206Z,1.30
2023-03-18T09:09:44.541Z,1.60
2023-03-18T09:10:44.095Z,1.10
2023-03-18T09:11:44.113Z,1.40
2023-03-18T09:12:44.090Z,1.80
2023-03-18T09:13:44.069Z,1.20
2023-03-18T09:14:44.336Z,1.20
2023-03-18T09:15:44.099Z,1.40
2023-03-18T09:16:44.107Z,1.00
2023-03-18T09:17:59.979Z,1.00
2023-03-18T09:18:47.648Z,1.10
2023-03-18T09:19:44.066Z,1.20
2023-03-18T09:20:44.029Z,1.30
2023-03-18T09:21:43.999Z,1.20
2023-03-18T09:22:43.992Z,1.50
2023-03-18T09:23:43.963Z,1.30
2023-03-18T09:24:43.964Z,1.30
2023-03-18T09:25:43.935Z,1.20
2023-03-18T09:26:43.936Z,1.20
2023-03-18T09:27:43.932Z,1.20
2023-03-18T09:28:43.912Z,1.20
2023-03-18T09:29:43.884Z,1.40
2023-03-18T09:30:43.985Z,1.10
2023-03-18T09:31:43.894Z,1.40
2023-03-18T09:32:43.881Z,1.30
2023-03-18T09:33:43.870Z,1.70
2023-03-18T09:34:43.872Z,1.10
2023-03-18T09:35:43.867Z,1.00
2023-03-18T09:36:43.847Z,1.70
2023-03-18T09:37:43.814Z,1.40
2023-03-18T09:38:43.809Z,1.70
2023-03-18T09:39:43.812Z,1.20
2023-03-18T09:40:43.796Z,0.80
2023-03-18T09:41:43.791Z,1.30
2023-03-18T09:42:43.746Z,0.80
2023-03-18T09:43:43.801Z,0.90
2023-03-18T09:44:43.767Z,0.90
2023-03-18T09:45:43.809Z,1.20
2023-03-18T09:46:43.844Z,1.10
2023-03-18T09:47:43.682Z,0.70
2023-03-18T09:48:43.727Z,1.10
2023-03-18T09:49:43.729Z,1.00
2023-03-18T09:50:43.669Z,0.90
2023-03-18T09:51:43.662Z,0.60
2023-03-18T09:52:43.642Z,1.10
2023-03-18T09:53:43.637Z,0.60
2023-03-18T09:54:43.739Z,0.80
2023-03-18T09:55:43.646Z,1.30
2023-03-18T09:56:43.604Z,0.80
2023-03-18T09:57:43.587Z,0.90
2023-03-18T09:58:43.613Z,0.80
2023-03-18T09:59:43.598Z,0.80
2023-03-18T10:00:43.546Z,1.10
2023-03-18T10:01:43.602Z,0.70
2023-03-18T10:02:43.520Z,0.90
2023-03-18T10:03:43.569Z,1.00
2023-03-18T10:04:43.550Z,1.20
2023-03-18T10:05:43.539Z,0.70
2023-03-18T10:06:43.506Z,0.80
2023-03-18T10:07:43.526Z,0.80
2023-03-18T10:08:43.488Z,0.80
2023-03-18T10:09:43.465Z,1.00
2023-03-18T10:10:43.483Z,1.00
2023-03-18T10:11:43.415Z,0.80
2023-03-18T10:12:43.444Z,0.90
2023-03-18T10:13:43.426Z,1.00
2023-03-18T10:14:43.399Z,0.90
2023-03-18T10:15:43.448Z,0.60
2023-03-18T10:16:43.359Z,0.70
2023-03-18T10:17:43.390Z,0.90
2023-03-18T10:18:43.355Z,0.70
2023-03-18T10:19:43.352Z,1.10
2023-03-18T10:20:43.335Z,0.70
2023-03-18T10:21:43.346Z,1.00
2023-03-18T10:22:43.335Z,1.00
2023-03-18T10:23:43.323Z,1.10
2023-03-18T10:24:43.279Z,0.90
2023-03-18T10:25:43.280Z,1.10
2023-03-18T10:26:43.297Z,1.20
2023-03-18T10:27:43.280Z,0.80
2023-03-18T10:28:43.284Z,0.80
2023-03-18T10:29:43.219Z,0.70
2023-03-18T10:30:43.212Z,1.00
2023-03-18T10:31:43.218Z,1.00
2023-03-18T10:32:49.820Z,0.90
2023-03-18T10:33:44.221Z,0.90
2023-03-18T10:34:43.163Z,1.00
2023-03-18T10:35:43.194Z,0.90
2023-03-18T10:36:43.156Z,0.80
2023-03-18T10:37:43.213Z,0.90
2023-03-18T10:38:43.143Z,0.80
2023-03-18T10:39:43.112Z,0.60
2023-03-18T10:40:43.117Z,0.60
2023-03-18T10:41:43.110Z,0.80
2023-03-18T10:42:43.096Z,1.40
2023-03-18T10:43:43.077Z,0.80
2023-03-18T10:44:43.123Z,0.80
2023-03-18T10:45:43.047Z,0.70
2023-03-18T10:46:43.195Z,1.20
2023-03-18T10:47:43.050Z,1.10
2023-03-18T10:48:43.064Z,1.00
2023-03-18T10:49:43.023Z,0.80
2023-03-18T10:50:43.026Z,0.90
2023-03-18T10:51:43.004Z,1.10
2023-03-18T10:52:42.991Z,0.80
2023-03-18T10:53:42.991Z,1.00
2023-03-18T10:54:42.948Z,0.80
2023-03-18T10:55:42.960Z,0.90
2023-03-18T10:56:42.954Z,1.00
2023-03-18T10:57:42.944Z,0.90
2023-03-18T10:58:42.920Z,0.90
2023-03-18T10:59:42.900Z,1.00
2023-03-18T11:00:42.903Z,0.70
2023-03-18T11:01:42.957Z,0.90
2023-03-18T11:02:42.894Z,0.80
2023-03-18T11:03:42.858Z,0.90
2023-03-18T11:04:42.853Z,0.80
2023-03-18T11:05:42.848Z,1.00
2023-03-18T11:06:42.816Z,0.70
2023-03-18T11:07:42.813Z,0.80
2023-03-18T11:08:42.802Z,0.70
2023-03-18T11:09:42.819Z,0.70
2023-03-18T11:10:42.794Z,0.80
2023-03-18T11:11:42.790Z,0.60
2023-03-18T11:12:42.749Z,0.60
2023-03-18T11:13:42.770Z,0.80
2023-03-18T11:14:42.733Z,0.70
2023-03-18T11:15:42.779Z,0.90
2023-03-18T11:16:42.733Z,0.50
2023-03-18T11:17:42.695Z,0.60
2023-03-18T11:18:42.687Z,0.80
2023-03-18T11:19:42.699Z,0.90
2023-03-18T11:20:42.709Z,1.10
2023-03-18T11:21:42.660Z,0.80
2023-03-18T11:22:42.634Z,0.80
2023-03-18T11:23:42.619Z,0.70
2023-03-18T11:24:42.736Z,0.90
2023-03-18T11:25:42.636Z,0.80
2023-03-18T11:26:42.607Z,0.80
2023-03-18T11:27:42.580Z,0.60
2023-03-18T11:28:42.584Z,0.90
2023-03-18T11:29:42.884Z,0.60
2023-03-18T11:30:42.880Z,1.00
2023-03-18T11:31:42.626Z,1.00
2023-03-18T11:32:42.574Z,0.90
2023-03-18T11:33:42.532Z,0.90
2023-03-18T11:34:42.514Z,0.50
2023-03-18T11:35:42.566Z,1.20
2023-03-18T11:36:42.494Z,0.70
2023-03-18T11:37:42.528Z,0.60
2023-03-18T11:38:42.481Z,0.90
2023-03-18T11:39:42.462Z,0.80
2023-03-18T11:40:42.471Z,0.90
2023-03-18T11:41:42.453Z,0.60
2023-03-18T11:42:42.438Z,0.90
2023-03-18T11:43:42.441Z,0.80
2023-03-18T11:44:42.402Z,0.80
2023-03-18T11:45:42.409Z,0.80
2023-03-18T11:46:42.447Z,0.70
2023-03-18T11:47:42.362Z,0.80
2023-03-18T11:48:42.371Z,0.40
2023-03-18T11:49:42.369Z,0.80
2023-03-18T11:50:42.339Z,0.80
2023-03-18T11:51:42.317Z,1.00
2023-03-18T11:52:42.347Z,0.80
2023-03-18T11:53:42.321Z,0.70
2023-03-18T11:54:42.284Z,1.10
2023-03-18T11:55:42.275Z,0.80
2023-03-18T11:56:42.253Z,0.60
2023-03-18T11:57:42.318Z,0.60
2023-03-18T11:58:42.242Z,0.90
2023-03-18T11:59:42.233Z,0.70
2023-03-18T12:00:42.236Z,0.40
2023-03-18T12:01:42.274Z,0.80
2023-03-18T12:02:42.225Z,0.70
2023-03-18T12:03:42.189Z,0.60
2023-03-18T12:04:42.256Z,0.70
2023-03-18T12:05:42.172Z,1.40
2023-03-18T12:06:42.164Z,0.60
2023-03-18T12:07:42.155Z,0.80
2023-03-18T12:08:42.179Z,0.90
2023-03-18T12:09:42.154Z,1.00
2023-03-18T12:10:42.102Z,0.60
2023-03-18T12:11:42.115Z,1.70
2023-03-18T12:12:42.099Z,0.60
2023-03-18T12:13:42.114Z,0.70
2023-03-18T12:14:42.074Z,1.20
2023-03-18T12:15:42.124Z,1.00
2023-03-18T12:16:42.131Z,1.00
2023-03-18T12:17:42.053Z,0.80
2023-03-18T12:18:43.046Z,0.80
2023-03-18T12:19:42.026Z,0.80
2023-03-18T12:20:42.032Z,0.70
2023-03-18T12:21:42.016Z,0.80
2023-03-18T12:22:41.973Z,0.80
2023-03-18T12:23:41.993Z,1.30
2023-03-18T12:24:41.966Z,0.70
2023-03-18T12:25:41.942Z,0.80
2023-03-18T12:26:41.946Z,1.00
2023-03-18T12:27:41.953Z,0.80
2023-03-18T12:28:41.939Z,0.70
2023-03-18T12:29:41.928Z,0.70
2023-03-18T12:30:41.915Z,1.00
2023-03-18T12:31:41.957Z,0.90
2023-03-18T12:32:41.979Z,0.70
2023-03-18T12:33:41.892Z,0.60
2023-03-18T12:34:41.865Z,0.60
2023-03-18T12:35:41.879Z,0.70
2023-03-18T12:36:41.837Z,1.60
2023-03-18T12:37:41.862Z,0.60
2023-03-18T12:38:41.856Z,0.60
2023-03-18T12:39:41.876Z,1.00
2023-03-18T12:40:41.808Z,0.50
2023-03-18T12:41:41.812Z,0.50
2023-03-18T12:42:41.825Z,0.80
2023-03-18T12:43:41.776Z,1.00
2023-03-18T12:44:41.820Z,0.70
2023-03-18T12:45:41.787Z,0.60
2023-03-18T12:46:41.747Z,0.60
2023-03-18T12:47:41.731Z,0.70
2023-03-18T12:48:44.464Z,0.80
2023-03-18T12:49:41.717Z,0.90
2023-03-18T12:50:41.674Z,0.90
2023-03-18T12:51:41.675Z,0.50
2023-03-18T12:52:41.663Z,0.70
2023-03-18T12:53:41.659Z,0.70
2023-03-18T12:54:41.661Z,0.70
2023-03-18T12:55:41.642Z,0.50
2023-03-18T12:56:41.639Z,0.70
2023-03-18T12:57:41.608Z,0.30
2023-03-18T12:58:41.625Z,0.90
2023-03-18T12:59:41.607Z,0.60
2023-03-18T13:00:41.628Z,0.40
2023-03-18T13:01:41.606Z,0.80
2023-03-18T13:02:41.649Z,0.90
2023-03-18T13:03:41.567Z,0.60
2023-03-18T13:04:41.536Z,0.70
2023-03-18T13:05:41.519Z,0.70
2023-03-18T13:06:41.531Z,1.10
2023-03-18T13:07:41.500Z,0.70
2023-03-18T13:08:41.497Z,0.70
2023-03-18T13:09:41.472Z,0.60
2023-03-18T13:10:41.470Z,0.60
2023-03-18T13:11:41.462Z,0.70
2023-03-18T13:12:41.460Z,0.90
2023-03-18T13:13:41.443Z,1.00
2023-03-18T13:14:41.413Z,0.80
2023-03-18T13:15:41.398Z,0.90
2023-03-18T13:16:41.442Z,0.50
2023-03-18T13:17:41.424Z,0.60
2023-03-18T13:18:41.374Z,0.80